Valjevo, Serbia
Current Conditions -  °F | °C
As of 7:00 PM on Friday 24 Oct 2014 (Local Time) from LYUZ Reporting Station
Broken Clouds Broken Clouds  
Wind Chill: 37°   Ceiling: 2000
Heat Index: 41°   Visibility: 6mi
Dew Point: 39°   Wind: 6mph
Humidity: 93%   Direction: 40°NE
Pressure: 29.97"   Gusts: NA
Location:  44.28°N, 19.89°E
Report Text: LYUZ 241700Z 04005KT 010V080 9999 BKN020 05/04 Q1015
Loading
Personal Weather Stations






























Interactive Weather Map
Tropical Storm Tracking
New forecast layout! Learn more

10-Day Weather Forecast

Advertisements
Track Severe Weather on mobile